createdAt,value
2022-11-29T00:01:38.354Z,35.15
2022-11-29T00:04:05.485Z,35.67
2022-11-29T00:06:34.674Z,36.22
2022-11-29T00:09:06.267Z,35.38
2022-11-29T00:11:56.397Z,34.35
2022-11-29T00:14:24.320Z,38.63
2022-11-29T00:17:03.518Z,38.08
2022-11-29T00:19:35.016Z,33.05
2022-11-29T00:22:03.099Z,37.33
2022-11-29T00:24:32.344Z,33.50
2022-11-29T00:26:59.792Z,35.63
2022-11-29T00:29:27.353Z,36.92
2022-11-29T00:31:54.028Z,35.15
2022-11-29T00:34:20.690Z,35.67
2022-11-29T00:36:47.334Z,36.13
2022-11-29T00:39:14.269Z,36.75
2022-11-29T00:41:40.930Z,36.97
2022-11-29T00:44:08.156Z,35.08
2022-11-29T00:46:34.869Z,34.55
2022-11-29T00:49:01.623Z,36.95
2022-11-29T00:51:28.426Z,36.65
2022-11-29T00:53:55.067Z,37.80
2022-11-29T00:56:21.733Z,38.35
2022-11-29T00:58:49.305Z,38.90
2022-11-29T01:01:16.311Z,38.95
2022-11-29T01:03:43.176Z,38.95
2022-11-29T01:06:13.610Z,36.58
2022-11-29T01:08:40.454Z,39.88
2022-11-29T01:11:19.557Z,38.45
2022-11-29T01:13:46.742Z,38.58
2022-11-29T01:16:15.365Z,39.45
2022-11-29T01:18:42.629Z,39.00
2022-11-29T01:21:15.157Z,38.40
2022-11-29T01:23:42.900Z,41.25
2022-11-29T01:26:19.176Z,41.83
2022-11-29T01:28:47.601Z,40.55
2022-11-29T01:31:20.114Z,40.25
2022-11-29T01:33:46.826Z,42.92
2022-11-29T01:36:14.679Z,38.95
2022-11-29T01:38:42.507Z,43.38
2022-11-29T01:41:12.645Z,43.53
2022-11-29T01:43:58.625Z,41.45
2022-11-29T01:46:27.237Z,43.03
2022-11-29T01:49:00.417Z,46.08
2022-11-29T01:51:28.539Z,43.67
2022-11-29T01:53:55.567Z,43.35
2022-11-29T01:56:23.153Z,42.30
2022-11-29T01:58:50.004Z,42.42
2022-11-29T02:01:16.853Z,46.97
2022-11-29T02:03:43.654Z,42.30
2022-11-29T02:06:10.540Z,44.70
2022-11-29T02:08:40.267Z,42.67
2022-11-29T02:11:09.861Z,44.90
2022-11-29T02:13:51.352Z,44.72
2022-11-29T02:16:17.998Z,39.67
2022-11-29T02:19:18.080Z,43.50
2022-11-29T02:21:53.139Z,43.03
2022-11-29T02:24:52.039Z,45.97
2022-11-29T02:27:27.614Z,43.42
2022-11-29T02:30:16.136Z,46.07
2022-11-29T02:33:01.190Z,42.67
2022-11-29T02:35:43.131Z,43.88
2022-11-29T02:38:57.965Z,44.85
2022-11-29T02:41:42.508Z,46.33
2022-11-29T02:44:27.758Z,44.38
2022-11-29T02:46:54.326Z,49.75
2022-11-29T02:49:45.839Z,48.17
2022-11-29T02:52:25.058Z,46.47
2022-11-29T02:55:16.050Z,44.28
2022-11-29T02:58:26.536Z,46.40
2022-11-29T03:01:07.512Z,45.00
2022-11-29T03:03:44.570Z,46.55
2022-11-29T03:06:31.035Z,45.97
2022-11-29T03:09:29.913Z,46.03
2022-11-29T03:12:02.626Z,48.72
2022-11-29T03:15:07.070Z,47.03
2022-11-29T03:17:57.658Z,47.88
2022-11-29T03:20:36.349Z,52.25
2022-11-29T03:23:02.954Z,48.42
2022-11-29T03:25:36.797Z,49.28
2022-11-29T03:28:21.628Z,53.42
2022-11-29T03:31:11.568Z,49.42
2022-11-29T03:33:53.395Z,47.83
2022-11-29T03:36:46.087Z,50.50
2022-11-29T03:39:36.495Z,48.38
2022-11-29T03:42:10.902Z,48.88
2022-11-29T03:44:51.071Z,48.30
2022-11-29T03:47:26.515Z,48.00
2022-11-29T03:50:14.793Z,52.13
2022-11-29T03:52:53.449Z,49.35
2022-11-29T03:55:38.872Z,51.67
2022-11-29T03:58:11.432Z,52.38
2022-11-29T04:00:50.123Z,50.83
2022-11-29T04:03:58.766Z,50.30
2022-11-29T04:07:02.474Z,50.75
2022-11-29T04:09:57.145Z,49.10
2022-11-29T04:12:23.852Z,50.08
2022-11-29T04:15:10.432Z,49.58
2022-11-29T04:18:08.878Z,47.63
2022-11-29T04:21:00.568Z,47.60
2022-11-29T04:23:55.926Z,47.10
2022-11-29T04:26:22.556Z,48.72
2022-11-29T04:29:01.191Z,48.90
2022-11-29T04:31:59.846Z,49.90
2022-11-29T04:34:53.932Z,51.22
2022-11-29T04:37:44.904Z,49.03
2022-11-29T04:40:25.540Z,48.78
2022-11-29T04:43:16.541Z,48.30
2022-11-29T04:45:43.373Z,49.80
2022-11-29T04:48:38.004Z,51.47
2022-11-29T04:51:26.778Z,50.65
2022-11-29T04:54:21.034Z,48.38
2022-11-29T04:56:50.797Z,49.90
2022-11-29T04:59:35.629Z,48.58
2022-11-29T05:02:24.112Z,48.72
2022-11-29T05:05:00.879Z,50.33
2022-11-29T05:07:45.742Z,50.00
2022-11-29T05:10:53.330Z,52.60
2022-11-29T05:13:54.673Z,50.05
2022-11-29T05:16:52.098Z,49.45
2022-11-29T05:22:20.575Z,51.60
2022-11-29T05:25:14.811Z,48.38
2022-11-29T05:27:51.440Z,51.83
2022-11-29T05:32:51.986Z,51.92
2022-11-29T05:35:46.608Z,50.90
2022-11-29T05:38:57.879Z,48.85
2022-11-29T05:41:33.521Z,48.65
2022-11-29T05:44:00.181Z,50.28
2022-11-29T05:46:39.816Z,50.97
2022-11-29T05:49:34.525Z,48.10
2022-11-29T05:52:28.217Z,50.45
2022-11-29T05:55:20.488Z,52.00
2022-11-29T05:57:57.057Z,52.38
2022-11-29T06:00:27.885Z,49.17
2022-11-29T06:03:30.006Z,51.88
2022-11-29T06:06:14.450Z,50.13
2022-11-29T06:09:24.953Z,49.88
2022-11-29T06:12:02.526Z,54.97
2022-11-29T06:14:29.123Z,53.08
2022-11-29T06:17:14.073Z,52.05
2022-11-29T06:19:59.303Z,48.83
2022-11-29T06:22:41.104Z,50.08
2022-11-29T06:25:28.152Z,50.38
2022-11-29T06:28:13.157Z,49.05
2022-11-29T06:30:53.856Z,49.22
2022-11-29T06:33:54.641Z,48.90
2022-11-29T06:36:25.509Z,48.90
2022-11-29T06:38:52.355Z,52.28
2022-11-29T06:41:22.270Z,51.50
2022-11-29T06:43:49.803Z,52.45
2022-11-29T06:46:25.842Z,50.42
2022-11-29T06:49:17.181Z,56.17
2022-11-29T06:52:01.981Z,54.30
2022-11-29T06:54:47.169Z,55.78
2022-11-29T06:57:29.046Z,55.28
2022-11-29T07:00:11.727Z,53.13
2022-11-29T07:02:44.381Z,55.00
2022-11-29T07:05:30.839Z,56.75
2022-11-29T07:08:05.498Z,54.92
2022-11-29T07:10:35.733Z,56.95
2022-11-29T07:13:02.878Z,57.15
2022-11-29T07:15:29.996Z,54.40
2022-11-29T07:17:59.734Z,52.97
2022-11-29T07:20:38.697Z,56.03
2022-11-29T07:23:33.265Z,54.20
2022-11-29T07:26:18.549Z,55.92
2022-11-29T07:28:59.488Z,58.97
2022-11-29T07:31:32.464Z,58.50
2022-11-29T07:34:34.077Z,59.67
2022-11-29T07:37:18.970Z,58.63
2022-11-29T07:40:03.974Z,53.88
2022-11-29T07:42:58.562Z,55.78
2022-11-29T07:45:31.994Z,56.25
2022-11-29T07:47:59.598Z,54.50
2022-11-29T07:50:27.413Z,58.08
2022-11-29T07:52:55.416Z,55.72
2022-11-29T07:55:25.414Z,51.45
2022-11-29T07:57:52.896Z,52.42
2022-11-29T08:00:20.732Z,57.25
2022-11-29T08:02:49.315Z,51.80
2022-11-29T08:05:16.295Z,54.50
2022-11-29T08:07:43.079Z,51.95
2022-11-29T08:10:13.501Z,54.40
2022-11-29T08:12:46.277Z,53.35
2022-11-29T08:15:13.691Z,52.50
2022-11-29T08:17:40.724Z,54.85
2022-11-29T08:20:08.925Z,56.15
2022-11-29T08:22:35.843Z,53.92
2022-11-29T08:25:04.117Z,53.20
2022-11-29T08:27:31.615Z,55.05
2022-11-29T08:29:58.308Z,58.88
2022-11-29T08:32:26.216Z,55.00
2022-11-29T08:34:52.884Z,54.78
2022-11-29T08:37:19.681Z,53.35
2022-11-29T08:39:46.400Z,55.15
2022-11-29T08:42:13.093Z,53.08
2022-11-29T08:44:39.926Z,52.92
2022-11-29T08:47:25.049Z,57.55
2022-11-29T08:50:03.854Z,52.85
2022-11-29T08:52:51.973Z,55.58
2022-11-29T08:55:20.341Z,58.47
2022-11-29T08:57:48.398Z,54.90
2022-11-29T09:00:16.169Z,53.67
2022-11-29T09:02:43.283Z,56.60
2022-11-29T09:05:11.250Z,53.47
2022-11-29T09:07:38.180Z,54.67
2022-11-29T09:10:09.258Z,57.03
2022-11-29T09:12:36.692Z,54.13
2022-11-29T09:15:08.750Z,53.22
2022-11-29T09:17:35.572Z,56.20
2022-11-29T09:20:02.361Z,56.72
2022-11-29T09:22:29.002Z,56.13
2022-11-29T09:24:55.794Z,56.90
2022-11-29T09:27:22.474Z,57.40
2022-11-29T09:29:49.115Z,58.20
2022-11-29T09:32:15.786Z,58.45
2022-11-29T09:34:42.575Z,58.72
2022-11-29T09:37:09.441Z,53.97
2022-11-29T09:39:36.177Z,57.38
2022-11-29T09:42:23.964Z,59.00
2022-11-29T09:45:24.330Z,56.72
2022-11-29T09:47:57.905Z,60.17
2022-11-29T09:50:33.861Z,57.78
2022-11-29T09:53:22.392Z,57.88
2022-11-29T09:56:21.069Z,55.88
2022-11-29T09:59:05.627Z,58.42
2022-11-29T10:01:41.309Z,57.75
2022-11-29T10:04:18.596Z,53.80
2022-11-29T10:07:12.423Z,58.70
2022-11-29T10:09:44.930Z,56.67
2022-11-29T10:12:30.538Z,58.17
2022-11-29T10:15:19.001Z,56.03
2022-11-29T10:18:21.031Z,55.75
2022-11-29T10:20:53.890Z,57.28
2022-11-29T10:23:27.263Z,54.17
2022-11-29T10:25:55.836Z,56.85
2022-11-29T10:28:30.589Z,60.85
2022-11-29T10:31:03.237Z,57.58
2022-11-29T10:33:35.241Z,56.47
2022-11-29T10:36:22.207Z,56.95
2022-11-29T10:38:50.382Z,59.92
2022-11-29T10:41:22.361Z,58.75
2022-11-29T10:43:50.907Z,60.42
2022-11-29T10:46:24.282Z,56.08
2022-11-29T10:48:52.803Z,59.47
2022-11-29T10:51:19.700Z,59.55
2022-11-29T10:53:49.241Z,61.55
2022-11-29T10:56:29.469Z,59.35
2022-11-29T10:59:03.003Z,55.97
2022-11-29T11:01:33.704Z,57.60
2022-11-29T11:04:04.217Z,56.97
2022-11-29T11:06:56.357Z,56.15
2022-11-29T11:09:33.616Z,58.05
2022-11-29T11:12:08.532Z,60.70
2022-11-29T11:14:38.844Z,59.30
2022-11-29T11:17:32.952Z,62.22
2022-11-29T11:20:08.786Z,63.75
2022-11-29T11:22:39.786Z,63.80
2022-11-29T11:25:25.339Z,63.15
2022-11-29T11:27:52.275Z,60.90
2022-11-29T11:30:25.230Z,63.63
2022-11-29T11:33:13.544Z,66.55
2022-11-29T11:35:40.866Z,61.08
2022-11-29T11:38:16.470Z,64.25
2022-11-29T11:40:43.819Z,62.83
2022-11-29T11:43:21.496Z,63.58
2022-11-29T11:45:53.591Z,63.00
2022-11-29T11:48:21.276Z,64.63
2022-11-29T11:50:54.466Z,66.22
2022-11-29T11:53:23.744Z,62.97
2022-11-29T11:56:03.039Z,63.38
2022-11-29T11:58:53.215Z,63.70
2022-11-29T12:01:28.646Z,62.90
2022-11-29T12:04:06.477Z,62.70
2022-11-29T12:06:45.309Z,61.17
2022-11-29T12:09:36.834Z,65.03
2022-11-29T12:12:12.030Z,65.43
2022-11-29T12:15:16.408Z,65.03
2022-11-29T12:18:03.513Z,65.72
2022-11-29T12:20:46.684Z,67.68
2022-11-29T12:23:22.053Z,64.05
2022-11-29T12:26:48.559Z,58.95
2022-11-29T12:29:13.663Z,63.33
2022-11-29T12:32:04.378Z,66.63
2022-11-29T12:34:31.063Z,67.60
2022-11-29T12:37:09.412Z,62.47
2022-11-29T12:40:08.466Z,65.78
2022-11-29T12:42:52.809Z,65.47
2022-11-29T12:45:53.795Z,63.78
2022-11-29T12:48:41.869Z,67.45
2022-11-29T12:51:27.249Z,71.07
2022-11-29T12:53:56.703Z,62.90
2022-11-29T12:56:32.392Z,70.72
2022-11-29T12:59:27.788Z,68.50
2022-11-29T13:02:18.488Z,64.40
2022-11-29T13:05:00.283Z,68.18
2022-11-29T13:07:35.765Z,69.22
2022-11-29T13:10:38.314Z,68.53
2022-11-29T13:13:30.765Z,65.07
2022-11-29T13:16:31.651Z,66.50
2022-11-29T13:19:00.567Z,68.40
2022-11-29T13:21:29.979Z,65.22
2022-11-29T13:24:08.483Z,64.75
2022-11-29T13:26:37.966Z,68.70
2022-11-29T13:29:06.213Z,66.10
2022-11-29T13:31:33.784Z,61.17
2022-11-29T13:34:13.324Z,64.88
2022-11-29T13:36:45.879Z,69.65
2022-11-29T13:39:49.714Z,68.65
2022-11-29T13:42:19.166Z,67.18
2022-11-29T13:45:10.681Z,65.60
2022-11-29T13:48:00.901Z,69.43
2022-11-29T13:50:41.248Z,66.43
2022-11-29T13:53:16.636Z,67.97
2022-11-29T13:55:46.584Z,72.78
2022-11-29T13:58:17.878Z,69.95
2022-11-29T14:00:44.819Z,70.30
2022-11-29T14:03:23.796Z,69.95
2022-11-29T14:05:52.157Z,65.13
2022-11-29T14:08:25.627Z,70.40
2022-11-29T14:10:58.149Z,68.18
2022-11-29T14:13:36.695Z,65.90
2022-11-29T14:16:05.443Z,69.97
2022-11-29T14:18:49.067Z,67.80
2022-11-29T14:21:15.895Z,69.43
2022-11-29T14:23:44.350Z,65.57
2022-11-29T14:26:10.954Z,71.00
2022-11-29T14:28:39.789Z,69.50
2022-11-29T14:31:08.363Z,69.28
2022-11-29T14:33:35.082Z,69.10
2022-11-29T14:36:04.873Z,65.88
2022-11-29T14:38:53.831Z,65.50
2022-11-29T14:41:39.114Z,65.95
2022-11-29T14:44:26.089Z,67.47
2022-11-29T14:49:40.387Z,70.25
2022-11-29T14:52:32.382Z,66.68
2022-11-29T14:55:14.277Z,63.35
2022-11-29T14:57:50.115Z,66.35
2022-11-29T15:00:28.349Z,69.18
2022-11-29T15:03:00.767Z,70.22
2022-11-29T15:05:34.952Z,71.68
2022-11-29T15:08:16.151Z,66.13
2022-11-29T15:11:18.229Z,64.70
2022-11-29T15:14:07.420Z,62.85
2022-11-29T15:16:57.413Z,60.42
2022-11-29T15:19:45.851Z,59.83
2022-11-29T15:22:22.478Z,66.07
2022-11-29T15:24:51.798Z,61.60
2022-11-29T15:27:18.894Z,62.25
2022-11-29T15:29:48.294Z,66.38
2022-11-29T15:32:26.534Z,62.83
2022-11-29T15:34:56.968Z,61.58
2022-11-29T15:37:36.526Z,59.85
2022-11-29T15:40:24.751Z,62.05
2022-11-29T15:43:00.066Z,64.25
2022-11-29T15:45:35.140Z,63.60
2022-11-29T15:48:19.740Z,63.67
2022-11-29T15:50:59.758Z,61.97
2022-11-29T15:53:34.021Z,62.85
2022-11-29T15:56:03.339Z,62.35
2022-11-29T15:58:33.481Z,63.55
2022-11-29T16:01:01.405Z,62.33
2022-11-29T16:03:34.686Z,64.10
2022-11-29T16:06:41.503Z,62.08
2022-11-29T16:09:13.659Z,63.38
2022-11-29T16:11:40.687Z,61.60
2022-11-29T16:14:28.139Z,63.13
2022-11-29T16:16:58.100Z,64.88
2022-11-29T16:19:35.041Z,60.40
2022-11-29T16:22:10.829Z,63.28
2022-11-29T16:24:39.471Z,63.65
2022-11-29T16:27:08.022Z,60.97
2022-11-29T16:29:38.247Z,62.00
2022-11-29T16:32:34.743Z,61.10
2022-11-29T16:35:16.730Z,60.83
2022-11-29T16:37:45.783Z,62.13
2022-11-29T16:40:30.667Z,60.80
2022-11-29T16:43:03.277Z,63.38
2022-11-29T16:45:38.501Z,62.42
2022-11-29T16:48:28.629Z,60.70
2022-11-29T16:51:10.533Z,57.08
2022-11-29T16:53:41.493Z,59.22
2022-11-29T16:56:11.425Z,59.50
2022-11-29T16:59:17.309Z,55.28
2022-11-29T17:01:28.388Z,58.00
2022-11-29T17:03:59.335Z,60.35
2022-11-29T17:06:28.479Z,65.20
2022-11-29T17:08:56.889Z,58.75
2022-11-29T17:11:24.504Z,61.47
2022-11-29T17:13:51.608Z,65.20
2022-11-29T17:16:23.858Z,58.55
2022-11-29T17:18:52.755Z,62.20
2022-11-29T17:21:27.838Z,60.75
2022-11-29T17:23:54.565Z,64.78
2022-11-29T17:26:22.106Z,61.60
2022-11-29T17:28:50.383Z,62.55
2022-11-29T17:31:24.703Z,63.63
2022-11-29T17:33:51.400Z,59.05
2022-11-29T17:36:20.264Z,60.83
2022-11-29T17:38:47.751Z,63.13
2022-11-29T17:41:17.532Z,65.00
2022-11-29T17:43:44.538Z,63.00
2022-11-29T17:46:13.062Z,63.33
2022-11-29T17:48:40.297Z,63.05
2022-11-29T17:51:28.891Z,66.82
2022-11-29T17:53:54.998Z,63.80
2022-11-29T17:56:25.357Z,66.55
2022-11-29T17:58:57.397Z,68.10
2022-11-29T18:01:26.697Z,68.20
2022-11-29T18:03:56.007Z,67.32
2022-11-29T18:06:31.317Z,68.53
2022-11-29T18:08:59.833Z,67.13
2022-11-29T18:11:44.996Z,62.20
2022-11-29T18:16:42.190Z,69.57
2022-11-29T18:19:11.917Z,74.88
2022-11-29T18:21:38.613Z,66.53
2022-11-29T18:24:06.841Z,71.22
2022-11-29T18:26:36.257Z,73.05
2022-11-29T18:29:03.568Z,70.45
2022-11-29T18:31:32.840Z,71.68
2022-11-29T18:34:01.943Z,75.55
2022-11-29T18:36:34.406Z,76.10
2022-11-29T18:39:06.504Z,78.95
2022-11-29T18:41:34.214Z,77.47
2022-11-29T18:44:08.833Z,74.28
2022-11-29T18:46:37.607Z,75.53
2022-11-29T18:51:59.573Z,75.72
2022-11-29T18:54:26.265Z,80.72
2022-11-29T18:56:52.891Z,75.57
2022-11-29T18:59:19.862Z,77.28
2022-11-29T19:01:47.640Z,77.38
2022-11-29T19:04:17.755Z,79.07
2022-11-29T19:06:44.814Z,80.35
2022-11-29T19:09:16.899Z,77.47
2022-11-29T19:11:43.735Z,78.32
2022-11-29T19:14:12.558Z,77.93
2022-11-29T19:16:45.073Z,77.05
2022-11-29T19:19:12.307Z,76.63
2022-11-29T19:21:39.993Z,77.43
2022-11-29T19:24:13.467Z,77.20
2022-11-29T19:26:40.717Z,73.47
2022-11-29T19:29:07.423Z,78.05
2022-11-29T19:31:34.075Z,81.35
2022-11-29T19:34:00.886Z,78.05
2022-11-29T19:36:30.211Z,75.00
2022-11-29T19:38:59.589Z,78.88
2022-11-29T19:41:31.669Z,76.25
2022-11-29T19:44:01.060Z,78.10
2022-11-29T19:46:30.264Z,80.15
2022-11-29T19:48:58.058Z,78.05
2022-11-29T19:51:26.413Z,80.18
2022-11-29T19:53:55.002Z,73.10
2022-11-29T19:56:22.616Z,77.55
2022-11-29T19:58:50.139Z,82.25
2022-11-29T20:01:18.239Z,76.13
2022-11-29T20:03:45.248Z,82.72
2022-11-29T20:06:16.167Z,75.63
2022-11-29T20:08:43.000Z,80.65
2022-11-29T20:11:16.868Z,79.90
2022-11-29T20:13:45.187Z,80.55
2022-11-29T20:16:14.947Z,76.00
2022-11-29T20:18:50.171Z,79.05
2022-11-29T20:21:21.911Z,81.18
2022-11-29T20:23:48.982Z,80.72
2022-11-29T20:26:18.397Z,77.43
2022-11-29T20:28:45.656Z,78.38
2022-11-29T20:31:15.732Z,75.90
2022-11-29T20:33:45.076Z,78.57
2022-11-29T20:36:29.006Z,79.85
2022-11-29T20:38:55.794Z,78.85
2022-11-29T20:41:28.625Z,81.60
2022-11-29T20:43:58.781Z,80.63
2022-11-29T20:46:25.985Z,82.00
2022-11-29T20:48:54.006Z,79.00
2022-11-29T20:51:30.461Z,80.88
2022-11-29T20:53:58.917Z,77.90
2022-11-29T20:56:27.536Z,72.55
2022-11-29T20:58:54.668Z,83.05
2022-11-29T21:01:22.699Z,82.00
2022-11-29T21:03:49.371Z,76.07
2022-11-29T21:06:16.057Z,81.47
2022-11-29T21:08:42.901Z,73.10
2022-11-29T21:11:10.350Z,73.63
2022-11-29T21:13:37.505Z,80.32
2022-11-29T21:16:05.009Z,77.38
2022-11-29T21:18:32.321Z,76.28
2022-11-29T21:21:11.136Z,77.00
2022-11-29T21:23:43.916Z,75.30
2022-11-29T21:26:20.316Z,79.57
2022-11-29T21:31:22.852Z,75.00
2022-11-29T21:33:49.819Z,78.97
2022-11-29T21:36:18.061Z,72.88
2022-11-29T21:38:50.982Z,77.50
2022-11-29T21:41:21.725Z,77.07
2022-11-29T21:44:06.161Z,73.32
2022-11-29T21:46:35.245Z,78.97
2022-11-29T21:49:02.118Z,79.85
2022-11-29T21:51:28.881Z,74.57
2022-11-29T21:53:55.643Z,75.22
2022-11-29T21:56:22.465Z,73.93
2022-11-29T21:58:49.161Z,74.97
2022-11-29T22:01:18.576Z,77.15
2022-11-29T22:03:46.232Z,77.43
2022-11-29T22:06:16.575Z,81.68
2022-11-29T22:08:43.303Z,77.43
2022-11-29T22:11:12.315Z,81.75
2022-11-29T22:13:59.754Z,76.43
2022-11-29T22:16:26.482Z,77.50
2022-11-29T22:18:53.687Z,79.80
2022-11-29T22:21:20.789Z,76.20
2022-11-29T22:23:47.535Z,77.50
2022-11-29T22:26:14.242Z,76.65
2022-11-29T22:28:41.008Z,75.90
2022-11-29T22:31:11.622Z,76.47
2022-11-29T22:33:38.737Z,76.43
2022-11-29T22:36:08.887Z,77.95
2022-11-29T22:38:36.107Z,75.80
2022-11-29T22:41:05.828Z,74.78
2022-11-29T22:43:32.868Z,78.78
2022-11-29T22:46:13.898Z,76.93
2022-11-29T22:48:42.325Z,81.43
2022-11-29T22:51:10.276Z,83.13
2022-11-29T22:53:38.969Z,76.30
2022-11-29T22:56:08.345Z,73.88
2022-11-29T22:58:35.314Z,78.47
2022-11-29T23:01:10.981Z,75.22
2022-11-29T23:03:39.710Z,76.60
2022-11-29T23:06:17.800Z,75.90
2022-11-29T23:08:46.403Z,78.93
2022-11-29T23:11:16.212Z,73.18
2022-11-29T23:13:43.703Z,78.47
2022-11-29T23:16:17.009Z,77.60
2022-11-29T23:18:45.996Z,80.03
2022-11-29T23:21:18.276Z,77.90
2022-11-29T23:23:45.345Z,75.63
2022-11-29T23:26:26.829Z,75.80
2022-11-29T23:28:54.588Z,76.93
2022-11-29T23:31:22.953Z,75.40
2022-11-29T23:33:50.424Z,82.53
2022-11-29T23:36:17.693Z,77.75
2022-11-29T23:38:44.375Z,74.47
2022-11-29T23:41:11.702Z,76.95
2022-11-29T23:43:40.610Z,80.13
2022-11-29T23:46:08.777Z,77.18
2022-11-29T23:48:35.483Z,78.03
2022-11-29T23:51:02.293Z,80.50
2022-11-29T23:53:28.992Z,77.18
2022-11-29T23:56:04.309Z,81.00
2022-11-29T23:58:31.680Z,73.38
